Time;durP1;ratioP1;P1;durP2;ratioP2;P2;SDS_P1;SDS_P2;PMS_P1;PMS_P2;Temp;Humidity;BMP_temperature;BMP_pressure;BME280_temperature;BME280_humidity;BME280_pressure;Samples;Min_cycle;Max_cycle;Signal;HPM_P1;HPM_P2
2023/04/15 00:02:32;;;;;;;4.90;3.90;;;;;;;26.34;32.78;100998.19;21074030;28;20100;-67
2023/04/15 00:12:36;;;;;;;6.45;3.63;;;;;;;26.22;32.93;100983.88;21006795;28;20044;-67
2023/04/15 00:22:37;;;;;;;6.25;3.92;;;;;;;26.38;32.95;101008.75;20992100;28;20094;-67
2023/04/15 00:32:39;;;;;;;4.82;4.18;;;;;;;26.35;33.06;101011.06;20992291;28;20082;-67
2023/04/15 00:42:40;;;;;;;5.38;3.70;;;;;;;26.42;33.13;101032.22;21006855;28;20044;-67
2023/04/15 00:52:42;;;;;;;5.57;3.38;;;;;;;26.32;32.92;101025.72;21003728;28;20040;-66
2023/04/15 01:02:43;;;;;;;4.53;3.50;;;;;;;26.46;33.15;101044.50;21003143;28;20056;-67
2023/04/15 01:12:44;;;;;;;5.05;3.15;;;;;;;26.42;33.24;101049.88;21004275;28;20037;-67
2023/04/15 01:22:46;;;;;;;4.07;3.33;;;;;;;26.31;33.53;101046.50;20975620;28;20075;-67
2023/04/15 01:32:51;;;;;;;7.82;3.35;;;;;;;26.45;33.72;101057.72;20971464;28;20106;-68
2023/04/15 01:42:52;;;;;;;5.72;3.25;;;;;;;26.38;34.34;101045.22;21022762;28;20078;-69
2023/04/15 01:52:53;;;;;;;5.22;3.67;;;;;;;25.98;33.72;100974.88;21005711;28;20033;-69
2023/04/15 02:02:55;;;;;;;11.35;3.85;;;;;;;26.47;34.81;101063.00;20986100;28;20045;-69
2023/04/15 02:12:59;;;;;;;7.70;4.47;;;;;;;25.91;33.26;100982.91;20978454;28;20041;-69
2023/04/15 02:23:00;;;;;;;5.43;3.30;;;;;;;26.36;33.05;101060.41;20975549;28;20049;-69
2023/04/15 02:33:06;;;;;;;10.02;3.97;;;;;;;26.01;33.61;101005.09;20998242;28;20049;-68
2023/04/15 02:43:07;;;;;;;8.27;3.70;;;;;;;26.41;33.53;101089.50;20986116;28;20029;-74
2023/04/15 02:53:08;;;;;;;4.55;3.63;;;;;;;26.48;33.44;101102.00;20986913;28;20052;-74
2023/04/15 03:03:10;;;;;;;4.45;3.30;;;;;;;26.31;33.11;101082.97;20970239;28;20044;-73
2023/04/15 03:13:12;;;;;;;3.83;2.90;;;;;;;26.47;33.17;101108.72;20986464;28;20575;-72
2023/04/15 03:23:14;;;;;;;4.65;3.40;;;;;;;26.48;33.55;101117.97;20992159;28;20045;-74
2023/04/15 03:33:15;;;;;;;3.65;2.60;;;;;;;26.41;33.23;101106.34;20999387;28;20040;-76
2023/04/15 03:43:16;;;;;;;3.90;3.10;;;;;;;26.51;33.26;101117.34;20971036;28;20094;-72
2023/04/15 03:53:20;;;;;;;7.03;3.50;;;;;;;26.49;33.76;101116.84;20986545;28;20029;-73
2023/04/15 04:03:21;;;;;;;3.85;2.90;;;;;;;26.48;33.70;101117.97;20991353;28;20048;-68
2023/04/15 04:13:23;;;;;;;4.10;2.40;;;;;;;26.45;33.93;101110.22;20992757;28;20020;-70
2023/04/15 04:23:24;;;;;;;3.90;2.83;;;;;;;26.38;34.40;101107.78;21019642;28;20040;-68
2023/04/15 04:33:29;;;;;;;6.10;2.80;;;;;;;26.46;33.90;101114.66;20980855;28;20479;-68
2023/04/15 04:43:30;;;;;;;4.82;3.35;;;;;;;26.46;33.69;101114.66;20984351;28;20082;-69
2023/04/15 04:53:32;;;;;;;4.75;2.88;;;;;;;26.54;33.64;101122.34;20985356;28;20044;-70
2023/04/15 05:03:33;;;;;;;5.07;2.70;;;;;;;26.49;33.73;101108.44;20990865;28;20222;-70
2023/04/15 05:13:37;;;;;;;5.78;2.60;;;;;;;26.52;33.86;101113.41;20988472;28;20075;-70
2023/04/15 05:23:39;;;;;;;4.38;2.72;;;;;;;26.52;33.76;101104.97;20986658;28;20037;-70
2023/04/15 05:33:41;;;;;;;4.47;3.00;;;;;;;26.53;33.68;101109.47;20994315;28;20487;-70
2023/04/15 05:43:42;;;;;;;5.28;2.85;;;;;;;26.45;33.58;101079.34;20990508;28;20479;-68
2023/04/15 05:53:44;;;;;;;2.97;2.35;;;;;;;26.44;33.73;101077.69;20996701;28;20094;-70
2023/04/15 06:03:46;;;;;;;5.40;2.10;;;;;;;26.52;33.57;101103.00;20995827;28;20048;-69
2023/04/15 06:13:47;;;;;;;5.55;2.50;;;;;;;26.47;34.08;101093.88;20996807;28;20098;-69
2023/04/15 06:23:49;;;;;;;4.93;2.65;;;;;;;26.52;33.95;101096.56;20997816;28;20094;-69
2023/04/15 06:33:50;;;;;;;3.75;2.72;;;;;;;26.44;33.92;101089.75;20989665;28;20114;-69
2023/04/15 06:43:52;;;;;;;2.35;2.13;;;;;;;26.52;33.76;101102.16;20994091;28;20071;-70
2023/04/15 06:53:56;;;;;;;3.75;2.63;;;;;;;26.48;33.85;101084.31;20987894;28;20368;-69
2023/04/15 07:03:57;;;;;;;3.92;2.10;;;;;;;26.45;33.72;101079.34;20990291;28;20032;-69
2023/04/15 07:14:02;;;;;;;3.92;2.10;;;;;;;26.44;33.49;101069.28;20990421;28;20116;-69
2023/04/15 07:24:03;;;;;;;3.50;2.75;;;;;;;26.30;33.57;101044.84;20990193;28;20045;-70
2023/04/15 07:34:06;;;;;;;2.72;1.98;;;;;;;26.45;33.34;101073.72;20987312;28;20056;-69
2023/04/15 07:44:08;;;;;;;3.22;2.30;;;;;;;26.35;33.81;101063.53;20988854;28;20036;-69
2023/04/15 07:54:11;;;;;;;2.85;2.00;;;;;;;26.41;33.52;101061.44;20995007;28;20055;-69
2023/04/15 08:04:13;;;;;;;2.10;1.90;;;;;;;26.37;33.53;101047.22;20969834;28;20037;-71
2023/04/15 08:14:14;;;;;;;2.63;1.80;;;;;;;26.40;33.49;101040.16;20990658;28;20491;-68
2023/04/15 08:24:19;;;;;;;2.00;1.85;;;;;;;26.36;33.73;101037.97;20985197;28;20036;-68
2023/04/15 08:34:20;;;;;;;2.28;1.73;;;;;;;26.35;33.50;101027.06;20987019;28;20057;-69
2023/04/15 08:44:24;;;;;;;3.22;2.22;;;;;;;26.34;33.54;101022.56;20985757;28;20037;-68
2023/04/15 08:54:27;;;;;;;4.88;1.98;;;;;;;26.33;33.67;101030.16;20968809;28;20052;-69
2023/04/15 09:04:28;;;;;;;2.72;1.63;;;;;;;26.18;33.90;101013.69;21001025;28;20033;-68
2023/04/15 09:14:33;;;;;;;4.35;1.80;;;;;;;26.38;34.16;101051.66;20997655;28;20029;-69
2023/04/15 09:24:37;;;;;;;3.83;1.90;;;;;;;26.38;33.56;101074.09;20994846;28;20040;-69
2023/04/15 09:34:39;;;;;;;3.65;1.60;;;;;;;26.39;33.84;101080.53;20999067;28;20376;-68
2023/04/15 09:44:43;;;;;;;2.83;1.80;;;;;;;26.33;33.86;101080.66;20998393;28;20070;-69
2023/04/15 09:54:44;;;;;;;3.53;1.70;;;;;;;26.23;33.73;101075.28;20996947;28;20499;-70
2023/04/15 10:04:48;;;;;;;2.15;1.58;;;;;;;26.28;33.63;101092.00;20996151;28;20041;-69
2023/04/15 10:15:05;;;;;;;2.33;1.75;;;;;;;26.32;33.59;101107.06;20995815;28;20435;-69
2023/04/15 10:25:14;;;;;;;3.37;1.80;;;;;;;26.40;33.09;101124.31;20996663;28;20045;-68
2023/04/15 10:35:16;;;;;;;2.53;1.75;;;;;;;26.19;33.46;101099.50;20998523;28;20052;-68
2023/04/15 10:45:18;;;;;;;2.22;1.55;;;;;;;25.75;33.85;101035.63;20990280;28;20504;-69
2023/04/15 10:55:26;;;;;;;1.52;1.40;;;;;;;26.32;34.97;101126.69;20992399;28;20074;-69
2023/04/15 11:05:54;;;;;;;3.50;1.75;;;;;;;26.30;34.86;101134.63;20995596;28;20036;-68
2023/04/15 11:15:57;;;;;;;;;;;;;;;26.39;35.05;101154.34;20981594;28;20453;-68
2023/04/15 11:25:59;;;;;;;1.30;1.20;;;;;;;26.41;34.96;101151.22;20991815;28;19939;-71
2023/04/15 11:36:02;;;;;;;3.38;1.70;;;;;;;26.35;35.09;101126.09;20992008;28;20526;-71
2023/04/15 11:46:03;;;;;;;2.97;2.00;;;;;;;26.29;36.29;101110.50;20988638;28;20032;-70
2023/04/15 11:56:05;;;;;;;3.08;1.65;;;;;;;26.32;36.31;101120.25;20986188;28;20040;-71
2023/04/15 12:06:18;;;;;;;3.78;2.72;;;;;;;26.47;38.63;101144.38;20984423;28;20048;-71
2023/04/15 12:16:20;;;;;;;4.93;2.50;;;;;;;26.23;36.98;101099.72;20985507;28;20049;-71
2023/04/15 12:26:32;;;;;;;4.55;2.40;;;;;;;26.51;38.39;101167.88;20986994;28;20067;-71
2023/04/15 12:36:37;;;;;;;5.53;3.05;;;;;;;26.44;37.36;101156.25;20992139;28;20070;-71
2023/04/15 12:46:44;;;;;;;7.13;2.97;;;;;;;26.59;37.92;101169.94;21001325;28;20036;-72
2023/04/15 12:56:47;;;;;;;5.00;2.80;;;;;;;26.56;38.72;101143.31;20997148;28;20488;-71
2023/04/15 13:06:51;;;;;;;8.07;3.28;;;;;;;26.63;41.80;101142.09;21005641;28;20386;-70
2023/04/15 13:16:52;;;;;;;7.13;3.95;;;;;;;26.68;41.93;101151.22;21005881;28;20399;-71
2023/04/15 13:26:58;;;;;;;7.60;2.55;;;;;;;26.59;40.96;101144.69;21042359;28;20041;-72
2023/04/15 13:37:08;;;;;;;6.95;2.70;;;;;;;26.64;39.95;101141.75;20998436;28;20071;-72
2023/04/15 13:47:15;;;;;;;5.70;3.05;;;;;;;26.71;41.21;101144.13;20976619;28;20048;-72
2023/04/15 13:57:16;;;;;;;5.97;3.00;;;;;;;25.73;40.71;100968.66;20970195;28;20098;-73
2023/04/15 14:07:24;;;;;;;5.22;2.70;;;;;;;26.85;39.85;101139.31;20997606;28;20082;-72
2023/04/15 14:17:41;;;;;;;5.78;3.70;;;;;;;26.85;41.18;101139.31;20976479;28;20044;-72
2023/04/15 14:27:45;;;;;;;6.07;3.10;;;;;;;26.91;41.01;101126.81;20996912;28;20431;-74
2023/04/15 14:37:47;;;;;;;7.40;3.42;;;;;;;26.66;41.42;101066.47;20987764;28;20048;-73
2023/04/15 14:47:52;;;;;;;5.15;3.20;;;;;;;26.92;41.72;101122.03;21021782;28;20079;-73
2023/04/15 14:57:54;;;;;;;6.07;3.47;;;;;;;26.95;41.48;101121.41;21005601;28;20049;-71
2023/04/15 15:07:56;;;;;;;6.20;3.42;;;;;;;26.87;41.09;101100.50;21013587;28;20048;-71
2023/04/15 15:17:57;;;;;;;5.57;3.35;;;;;;;26.55;41.88;101035.03;21016647;28;20040;-72
2023/04/15 15:27:59;;;;;;;5.38;3.50;;;;;;;26.38;43.41;101011.56;20974118;28;20055;-73
2023/04/15 15:38:01;;;;;;;4.43;3.10;;;;;;;26.88;41.74;101059.22;20985182;28;20553;-73
2023/04/15 15:48:08;;;;;;;6.03;2.92;;;;;;;27.01;41.10;101075.19;20982921;28;20040;-73
2023/04/15 15:58:13;;;;;;;4.32;2.85;;;;;;;26.71;41.84;101032.69;20996491;28;20491;-76
2023/04/15 16:08:15;;;;;;;5.15;3.13;;;;;;;27.03;40.94;101061.63;20993987;28;20388;-73
2023/04/15 16:18:17;;;;;;;3.03;2.70;;;;;;;26.93;40.75;101039.44;20992875;28;20066;-73
2023/04/15 16:28:18;;;;;;;4.47;2.70;;;;;;;27.03;40.80;101047.59;20992667;28;20048;-73
2023/04/15 16:38:20;;;;;;;4.57;2.45;;;;;;;26.97;41.08;101023.59;20992287;28;20044;-74
2023/04/15 16:48:21;;;;;;;4.32;2.90;;;;;;;27.04;40.30;101027.63;20991025;28;20479;-74
2023/04/15 16:58:22;;;;;;;2.40;2.20;;;;;;;27.00;40.93;101001.34;20990817;28;20044;-74
2023/04/15 17:08:24;;;;;;;3.35;2.88;;;;;;;27.01;41.16;100985.31;20991224;28;20103;-74
2023/04/15 17:18:28;;;;;;;3.13;2.70;;;;;;;26.88;41.38;100946.91;20994470;28;20189;-74
2023/04/15 17:28:30;;;;;;;4.63;2.60;;;;;;;26.98;40.47;100941.00;21004739;28;20454;-75
2023/04/15 17:38:34;;;;;;;2.80;2.42;;;;;;;27.12;40.54;100941.78;21004678;28;20106;-74
2023/04/15 17:48:35;;;;;;;4.78;2.65;;;;;;;26.93;40.36;100885.81;21002973;28;20051;-74
2023/04/15 17:58:38;;;;;;;5.25;2.30;;;;;;;27.09;41.48;100892.72;20992156;28;20036;-73
2023/04/15 18:08:39;;;;;;;5.80;2.97;;;;;;;27.18;42.31;100901.16;20964186;28;20021;-73
2023/04/15 18:18:40;;;;;;;3.95;2.13;;;;;;;27.20;40.65;100892.41;20968660;28;20048;-72
2023/04/15 18:28:42;;;;;;;3.13;2.20;;;;;;;27.08;41.34;100891.06;20964734;28;20090;-71
2023/04/15 18:38:49;;;;;;;2.40;2.20;;;;;;;27.13;41.89;100892.91;20980297;28;20049;-72
2023/04/15 18:59:01;;;;;;;9.02;2.92;;;;;;;27.25;42.29;100895.88;21045151;22;19959;-72
2023/04/15 19:09:03;;;;;;;9.00;2.47;;;;;;;27.15;41.46;100890.56;20962711;28;20474;-69
2023/04/15 19:19:05;;;;;;;10.55;2.95;;;;;;;27.05;39.37;100863.56;20965672;28;20503;-73
2023/04/15 19:29:06;;;;;;;6.25;2.97;;;;;;;26.93;38.71;100842.88;20978930;28;20025;-74
2023/04/15 19:39:09;;;;;;;3.90;2.63;;;;;;;26.73;38.15;100822.66;20980955;28;20033;-73
2023/04/15 19:49:11;;;;;;;8.32;3.10;;;;;;;26.67;38.14;100807.13;20963320;28;20048;-70
2023/04/15 19:59:16;;;;;;;8.77;3.03;;;;;;;26.55;37.82;100754.38;20966605;28;20079;-72
2023/04/15 20:09:17;;;;;;;4.32;2.35;;;;;;;26.39;38.19;100743.88;20970168;28;20094;-71
2023/04/15 20:19:19;;;;;;;8.65;3.20;;;;;;;26.43;37.80;100801.00;20980600;28;20067;-73
2023/04/15 20:29:20;;;;;;;5.88;3.10;;;;;;;26.14;38.07;100815.53;20981535;28;20041;-72
2023/04/15 20:39:21;;;;;;;5.97;3.47;;;;;;;26.28;37.95;100866.75;20975976;28;20067;-73
2023/04/15 20:49:23;;;;;;;7.13;3.55;;;;;;;26.22;38.40;100852.03;20974600;28;20037;-74
2023/04/15 20:59:24;;;;;;;11.18;3.67;;;;;;;26.23;37.87;100836.88;20993290;28;20563;-80
2023/04/15 21:09:26;;;;;;;11.23;3.58;;;;;;;26.27;39.17;100840.69;20993725;28;20040;-73
2023/04/15 21:19:27;;;;;;;5.30;2.63;;;;;;;26.30;41.82;100851.28;21001041;28;20033;-71
2023/04/15 21:29:29;;;;;;;6.30;2.65;;;;;;;26.19;42.27;100847.06;21001731;28;20549;-71
2023/04/15 21:39:31;;;;;;;4.13;2.67;;;;;;;26.43;42.68;100887.97;20999245;28;20067;-72
2023/04/15 21:49:33;;;;;;;6.35;2.72;;;;;;;26.42;42.36;100897.56;20994103;28;20420;-71
2023/04/15 21:59:34;;;;;;;5.85;3.08;;;;;;;26.46;41.30;100913.47;20994522;28;20398;-69
2023/04/15 22:09:35;;;;;;;5.68;2.70;;;;;;;26.52;39.05;100919.75;20981015;28;20044;-68
2023/04/15 22:19:37;;;;;;;6.53;2.60;;;;;;;26.60;38.15;100919.00;20986985;28;20031;-69
2023/04/15 22:29:38;;;;;;;18.30;3.83;;;;;;;26.60;38.44;100921.81;20988666;28;20040;-68
2023/04/15 22:39:42;;;;;;;11.10;2.67;;;;;;;26.65;38.23;100932.91;20982249;28;20122;-68
2023/04/15 22:49:49;;;;;;;7.63;2.60;;;;;;;26.70;38.42;100929.94;20983477;28;20056;-68
2023/04/15 22:59:50;;;;;;;11.27;2.35;;;;;;;26.58;39.96;100915.69;20987827;28;20049;-69
2023/04/15 23:09:51;;;;;;;7.85;2.92;;;;;;;26.61;40.97;100934.69;20986749;28;20062;-73
2023/04/15 23:19:53;;;;;;;9.05;2.63;;;;;;;26.44;41.49;100909.34;20988301;28;20129;-72
2023/04/15 23:29:54;;;;;;;6.20;2.17;;;;;;;26.47;41.77;100933.94;21000742;28;20395;-73
2023/04/15 23:39:55;;;;;;;33.97;4.32;;;;;;;26.69;41.96;100970.41;20970196;28;20121;-71
2023/04/15 23:49:57;;;;;;;10.05;2.90;;;;;;;26.60;41.36;100947.06;20979183;28;20036;-73
